sensor_id;sensor_type;location;lat;lon;timestamp;pressure;altitude;pressure_sealevel;temperature;humidity
66273;BME280;58450;52.150;4.466;2023-07-30T00:01:40;100835.31;;;18.45;100.00
66273;BME280;58450;52.150;4.466;2023-07-30T00:04:08;100834.50;;;18.33;100.00
66273;BME280;58450;52.150;4.466;2023-07-30T00:06:36;100840.81;;;18.33;100.00
66273;BME280;58450;52.150;4.466;2023-07-30T00:09:04;100839.72;;;18.34;100.00
66273;BME280;58450;52.150;4.466;2023-07-30T00:11:32;100851.34;;;18.41;100.00
66273;BME280;58450;52.150;4.466;2023-07-30T00:14:00;100834.03;;;18.36;100.00
66273;BME280;58450;52.150;4.466;2023-07-30T00:16:27;100839.59;;;18.41;100.00
66273;BME280;58450;52.150;4.466;2023-07-30T00:18:55;100839.69;;;18.46;100.00
66273;BME280;58450;52.150;4.466;2023-07-30T00:21:23;100839.94;;;18.44;100.00
66273;BME280;58450;52.150;4.466;2023-07-30T00:23:50;100838.41;;;18.37;100.00
66273;BME280;58450;52.150;4.466;2023-07-30T00:26:20;100842.56;;;18.39;100.00
66273;BME280;58450;52.150;4.466;2023-07-30T00:28:47;100844.81;;;18.42;100.00
66273;BME280;58450;52.150;4.466;2023-07-30T00:31:15;100847.19;;;18.39;100.00
66273;BME280;58450;52.150;4.466;2023-07-30T00:33:42;100851.44;;;18.35;100.00
66273;BME280;58450;52.150;4.466;2023-07-30T00:36:10;100848.72;;;18.46;100.00
66273;BME280;58450;52.150;4.466;2023-07-30T00:38:37;100854.06;;;18.41;100.00
66273;BME280;58450;52.150;4.466;2023-07-30T00:41:05;100864.00;;;18.48;100.00
66273;BME280;58450;52.150;4.466;2023-07-30T00:43:34;100862.81;;;18.43;100.00
66273;BME280;58450;52.150;4.466;2023-07-30T00:46:02;100869.94;;;18.44;100.00
66273;BME280;58450;52.150;4.466;2023-07-30T00:48:30;100876.31;;;18.50;100.00
66273;BME280;58450;52.150;4.466;2023-07-30T00:50:58;100877.97;;;18.51;100.00
66273;BME280;58450;52.150;4.466;2023-07-30T00:53:27;100863.53;;;18.51;100.00
66273;BME280;58450;52.150;4.466;2023-07-30T00:55:55;100868.00;;;18.45;100.00
66273;BME280;58450;52.150;4.466;2023-07-30T00:58:23;100865.66;;;18.49;100.00
66273;BME280;58450;52.150;4.466;2023-07-30T01:00:54;100870.84;;;18.50;100.00
66273;BME280;58450;52.150;4.466;2023-07-30T01:03:22;100867.16;;;18.56;100.00
66273;BME280;58450;52.150;4.466;2023-07-30T01:05:50;100867.28;;;18.61;100.00
66273;BME280;58450;52.150;4.466;2023-07-30T01:08:18;100866.31;;;18.56;100.00
66273;BME280;58450;52.150;4.466;2023-07-30T01:10:46;100865.19;;;18.52;100.00
66273;BME280;58450;52.150;4.466;2023-07-30T01:13:15;100863.47;;;18.63;100.00
66273;BME280;58450;52.150;4.466;2023-07-30T01:15:44;100863.84;;;18.54;100.00
66273;BME280;58450;52.150;4.466;2023-07-30T01:18:14;100869.19;;;18.49;100.00
66273;BME280;58450;52.150;4.466;2023-07-30T01:20:41;100868.13;;;18.50;100.00
66273;BME280;58450;52.150;4.466;2023-07-30T01:23:10;100875.69;;;18.60;100.00
66273;BME280;58450;52.150;4.466;2023-07-30T01:25:39;100859.31;;;18.60;100.00
66273;BME280;58450;52.150;4.466;2023-07-30T01:28:08;100868.25;;;18.55;100.00
66273;BME280;58450;52.150;4.466;2023-07-30T01:30:41;100868.94;;;18.63;100.00
66273;BME280;58450;52.150;4.466;2023-07-30T01:33:10;100864.44;;;18.56;100.00
66273;BME280;58450;52.150;4.466;2023-07-30T01:35:39;100877.97;;;18.51;100.00
66273;BME280;58450;52.150;4.466;2023-07-30T01:38:11;100869.19;;;18.49;100.00
66273;BME280;58450;52.150;4.466;2023-07-30T01:40:40;100878.81;;;18.52;100.00
66273;BME280;58450;52.150;4.466;2023-07-30T01:43:08;100882.00;;;18.49;100.00
66273;BME280;58450;52.150;4.466;2023-07-30T01:45:35;100877.16;;;18.51;100.00
66273;BME280;58450;52.150;4.466;2023-07-30T01:48:03;100884.84;;;18.42;100.00
66273;BME280;58450;52.150;4.466;2023-07-30T01:50:31;100895.16;;;18.52;100.00
66273;BME280;58450;52.150;4.466;2023-07-30T01:52:58;100890.28;;;18.42;100.00
66273;BME280;58450;52.150;4.466;2023-07-30T01:55:27;100886.63;;;18.48;100.00
66273;BME280;58450;52.150;4.466;2023-07-30T01:57:55;100888.84;;;18.51;100.00
66273;BME280;58450;52.150;4.466;2023-07-30T02:00:22;100884.38;;;18.45;100.00
66273;BME280;58450;52.150;4.466;2023-07-30T02:02:50;100885.69;;;18.42;100.00
66273;BME280;58450;52.150;4.466;2023-07-30T02:05:17;100893.38;;;18.34;100.00
66273;BME280;58450;52.150;4.466;2023-07-30T02:07:45;100885.91;;;18.41;100.00
66273;BME280;58450;52.150;4.466;2023-07-30T02:10:13;100873.13;;;18.29;100.00
66273;BME280;58450;52.150;4.466;2023-07-30T02:12:42;100881.19;;;18.36;100.00
66273;BME280;58450;52.150;4.466;2023-07-30T02:15:10;100882.38;;;18.40;100.00
66273;BME280;58450;52.150;4.466;2023-07-30T02:17:37;100878.44;;;18.48;100.00
66273;BME280;58450;52.150;4.466;2023-07-30T02:20:06;100871.78;;;18.56;100.00
66273;BME280;58450;52.150;4.466;2023-07-30T02:22:35;100878.91;;;18.45;100.00
66273;BME280;58450;52.150;4.466;2023-07-30T02:25:03;100886.38;;;18.50;100.00
66273;BME280;58450;52.150;4.466;2023-07-30T02:27:30;100876.56;;;18.49;100.00
66273;BME280;58450;52.150;4.466;2023-07-30T02:29:59;100875.50;;;18.50;100.00
66273;BME280;58450;52.150;4.466;2023-07-30T02:32:27;100875.13;;;18.46;100.00
66273;BME280;58450;52.150;4.466;2023-07-30T02:34:55;100876.56;;;18.49;100.00
66273;BME280;58450;52.150;4.466;2023-07-30T02:37:23;100877.50;;;18.42;100.00
66273;BME280;58450;52.150;4.466;2023-07-30T02:39:50;100865.78;;;18.54;100.00
66273;BME280;58450;52.150;4.466;2023-07-30T02:42:18;100869.41;;;18.59;100.00
66273;BME280;58450;52.150;4.466;2023-07-30T02:44:45;100869.06;;;18.56;100.00
66273;BME280;58450;52.150;4.466;2023-07-30T02:47:14;100862.31;;;18.58;100.00
66273;BME280;58450;52.150;4.466;2023-07-30T02:49:42;100863.03;;;18.54;100.00
66273;BME280;58450;52.150;4.466;2023-07-30T02:52:10;100865.25;;;18.69;100.00
66273;BME280;58450;52.150;4.466;2023-07-30T02:54:37;100863.34;;;18.69;100.00
66273;BME280;58450;52.150;4.466;2023-07-30T02:57:05;100866.59;;;18.54;100.00
66273;BME280;58450;52.150;4.466;2023-07-30T02:59:33;100860.59;;;18.81;100.00
66273;BME280;58450;52.150;4.466;2023-07-30T03:02:02;100868.03;;;18.86;100.00
66273;BME280;58450;52.150;4.466;2023-07-30T03:04:32;100869.06;;;18.56;100.00
66273;BME280;58450;52.150;4.466;2023-07-30T03:07:00;100871.56;;;18.57;100.00
66273;BME280;58450;52.150;4.466;2023-07-30T03:09:27;100870.38;;;18.53;100.00
66273;BME280;58450;52.150;4.466;2023-07-30T03:11:55;100864.56;;;18.61;100.00
66273;BME280;58450;52.150;4.466;2023-07-30T03:14:23;100866.28;;;18.80;100.00
66273;BME280;58450;52.150;4.466;2023-07-30T03:16:50;100872.69;;;18.73;100.00
66273;BME280;58450;52.150;4.466;2023-07-30T03:19:18;100869.59;;;18.82;100.00
66273;BME280;58450;52.150;4.466;2023-07-30T03:21:47;100869.22;;;18.90;100.00
66273;BME280;58450;52.150;4.466;2023-07-30T03:24:15;100874.13;;;18.64;100.00
66273;BME280;58450;52.150;4.466;2023-07-30T03:26:42;100871.28;;;18.59;100.00
66273;BME280;58450;52.150;4.466;2023-07-30T03:29:10;100872.00;;;18.66;100.00
66273;BME280;58450;52.150;4.466;2023-07-30T03:31:37;100869.63;;;18.70;100.00
66273;BME280;58450;52.150;4.466;2023-07-30T03:34:05;100868.25;;;18.55;100.00
66273;BME280;58450;52.150;4.466;2023-07-30T03:36:32;100866.91;;;18.58;100.00
66273;BME280;58450;52.150;4.466;2023-07-30T03:39:01;100863.16;;;18.47;100.00
66273;BME280;58450;52.150;4.466;2023-07-30T03:41:29;100865.88;;;18.47;100.00
66273;BME280;58450;52.150;4.466;2023-07-30T03:43:57;100867.06;;;18.51;100.00
66273;BME280;58450;52.150;4.466;2023-07-30T03:46:24;100878.09;;;18.44;100.00
66273;BME280;58450;52.150;4.466;2023-07-30T03:48:51;100862.09;;;18.48;100.00
66273;BME280;58450;52.150;4.466;2023-07-30T03:51:18;100872.16;;;18.36;100.00
66273;BME280;58450;52.150;4.466;2023-07-30T03:53:46;100891.25;;;18.36;100.00
66273;BME280;58450;52.150;4.466;2023-07-30T03:56:15;100869.09;;;18.44;100.00
66273;BME280;58450;52.150;4.466;2023-07-30T03:58:42;100889.59;;;18.35;100.00
66273;BME280;58450;52.150;4.466;2023-07-30T04:01:10;100880.81;;;18.33;100.00
66273;BME280;58450;52.150;4.466;2023-07-30T04:03:38;100894.31;;;18.27;100.00
66273;BME280;58450;52.150;4.466;2023-07-30T04:06:05;100884.50;;;18.26;100.00
66273;BME280;58450;52.150;4.466;2023-07-30T04:08:33;100879.28;;;18.25;100.00
66273;BME280;58450;52.150;4.466;2023-07-30T04:11:00;100880.00;;;18.20;100.00
66273;BME280;58450;52.150;4.466;2023-07-30T04:13:29;100886.97;;;18.16;100.00
66273;BME280;58450;52.150;4.466;2023-07-30T04:15:57;100882.59;;;18.15;100.00
66273;BME280;58450;52.150;4.466;2023-07-30T04:18:25;100876.47;;;18.20;100.00
66273;BME280;58450;52.150;4.466;2023-07-30T04:20:54;100884.13;;;18.11;100.00
66273;BME280;58450;52.150;4.466;2023-07-30T04:23:21;100875.97;;;18.11;100.00
66273;BME280;58450;52.150;4.466;2023-07-30T04:25:49;100881.53;;;18.16;100.00
66273;BME280;58450;52.150;4.466;2023-07-30T04:28:17;100878.59;;;18.17;100.00
66273;BME280;58450;52.150;4.466;2023-07-30T04:30:46;100879.28;;;18.25;100.00
66273;BME280;58450;52.150;4.466;2023-07-30T04:33:13;100868.88;;;18.22;100.00
66273;BME280;58450;52.150;4.466;2023-07-30T04:35:41;100872.28;;;18.41;100.00
66273;BME280;58450;52.150;4.466;2023-07-30T04:38:09;100875.84;;;18.29;100.00
66273;BME280;58450;52.150;4.466;2023-07-30T04:40:36;100875.75;;;18.36;100.00
66273;BME280;58450;52.150;4.466;2023-07-30T04:43:04;100876.22;;;18.33;100.00
66273;BME280;58450;52.150;4.466;2023-07-30T04:45:31;100878.00;;;18.39;100.00
66273;BME280;58450;52.150;4.466;2023-07-30T04:48:00;100884.38;;;18.33;100.00
66273;BME280;58450;52.150;4.466;2023-07-30T04:50:28;100880.59;;;18.22;100.00
66273;BME280;58450;52.150;4.466;2023-07-30T04:52:55;100883.19;;;18.17;100.00
66273;BME280;58450;52.150;4.466;2023-07-30T04:55:23;100885.22;;;18.45;100.00
66273;BME280;58450;52.150;4.466;2023-07-30T04:57:51;100890.19;;;18.37;100.00
66273;BME280;58450;52.150;4.466;2023-07-30T05:00:18;100889.22;;;18.43;100.00
66273;BME280;58450;52.150;4.466;2023-07-30T05:02:46;100891.84;;;18.26;100.00
66273;BME280;58450;52.150;4.466;2023-07-30T05:05:15;100886.03;;;18.34;100.00
66273;BME280;58450;52.150;4.466;2023-07-30T05:07:43;100885.44;;;18.32;100.00
66273;BME280;58450;52.150;4.466;2023-07-30T05:10:10;100878.72;;;18.23;100.00
66273;BME280;58450;52.150;4.466;2023-07-30T05:12:38;100888.16;;;18.44;100.00
66273;BME280;58450;52.150;4.466;2023-07-30T05:15:07;100897.88;;;18.40;100.00
66273;BME280;58450;52.150;4.466;2023-07-30T05:17:35;100881.75;;;18.50;100.00
66273;BME280;58450;52.150;4.466;2023-07-30T05:20:03;100891.13;;;18.42;100.00
66273;BME280;58450;52.150;4.466;2023-07-30T05:22:33;100890.28;;;18.42;100.00
66273;BME280;58450;52.150;4.466;2023-07-30T05:25:00;100900.47;;;18.35;100.00
66273;BME280;58450;52.150;4.466;2023-07-30T05:27:28;100900.00;;;18.38;100.00
66273;BME280;58450;52.150;4.466;2023-07-30T05:29:57;100904.97;;;18.41;100.00
66273;BME280;58450;52.150;4.466;2023-07-30T05:32:25;100884.44;;;18.62;100.00
66273;BME280;58450;52.150;4.466;2023-07-30T05:34:53;100892.50;;;18.69;100.00
66273;BME280;58450;52.150;4.466;2023-07-30T05:37:20;100890.00;;;18.79;100.00
66273;BME280;58450;52.150;4.466;2023-07-30T05:39:50;100894.97;;;18.82;100.00
66273;BME280;58450;52.150;4.466;2023-07-30T05:42:18;100887.88;;;18.69;100.00
66273;BME280;58450;52.150;4.466;2023-07-30T05:44:45;100883.84;;;18.72;100.00
66273;BME280;58450;52.150;4.466;2023-07-30T05:47:13;100889.50;;;18.82;100.00
66273;BME280;58450;52.150;4.466;2023-07-30T05:49:41;100885.84;;;18.76;100.00
66273;BME280;58450;52.150;4.466;2023-07-30T05:52:08;100877.22;;;18.68;100.00
66273;BME280;58450;52.150;4.466;2023-07-30T05:54:36;100892.63;;;18.74;100.00
66273;BME280;58450;52.150;4.466;2023-07-30T05:57:05;100884.53;;;18.79;100.00
66273;BME280;58450;52.150;4.466;2023-07-30T05:59:33;100895.44;;;18.79;100.00
66273;BME280;58450;52.150;4.466;2023-07-30T06:02:02;100890.00;;;18.79;100.00
66273;BME280;58450;52.150;4.466;2023-07-30T06:04:30;100885.09;;;18.93;100.00
66273;BME280;58450;52.150;4.466;2023-07-30T06:06:59;100892.72;;;18.79;100.00
66273;BME280;58450;52.150;4.466;2023-07-30T06:09:27;100889.16;;;18.79;100.00
66273;BME280;58450;52.150;4.466;2023-07-30T06:11:56;100889.19;;;18.67;100.00
66273;BME280;58450;52.150;4.466;2023-07-30T06:14:26;100892.16;;;18.65;100.00
66273;BME280;58450;52.150;4.466;2023-07-30T06:16:54;100890.47;;;18.76;100.00
66273;BME280;58450;52.150;4.466;2023-07-30T06:19:21;100881.13;;;18.72;100.00
66273;BME280;58450;52.150;4.466;2023-07-30T06:21:49;100893.94;;;18.59;100.00
66273;BME280;58450;52.150;4.466;2023-07-30T06:24:17;100901.41;;;18.52;100.00
66273;BME280;58450;52.150;4.466;2023-07-30T06:26:44;100888.47;;;18.71;100.00
66273;BME280;58450;52.150;4.466;2023-07-30T06:29:12;100885.03;;;18.76;100.00
66273;BME280;58450;52.150;4.466;2023-07-30T06:31:41;100896.63;;;18.83;100.00
66273;BME280;58450;52.150;4.466;2023-07-30T06:34:09;100901.81;;;18.85;100.00
66273;BME280;58450;52.150;4.466;2023-07-30T06:36:36;100896.03;;;18.81;100.00
66273;BME280;58450;52.150;4.466;2023-07-30T06:39:04;100902.41;;;18.87;100.00
66273;BME280;58450;52.150;4.466;2023-07-30T06:41:31;100897.69;;;18.82;100.00
66273;BME280;58450;52.150;4.466;2023-07-30T06:43:59;100900.69;;;18.69;100.00
66273;BME280;58450;52.150;4.466;2023-07-30T06:46:27;100902.94;;;18.72;100.00
66273;BME280;58450;52.150;4.466;2023-07-30T06:48:56;100917.41;;;18.60;100.00
66273;BME280;58450;52.150;4.466;2023-07-30T06:51:24;100927.38;;;18.55;100.00
66273;BME280;58450;52.150;4.466;2023-07-30T06:53:52;100895.22;;;18.69;100.00
66273;BME280;58450;52.150;4.466;2023-07-30T06:56:20;100896.34;;;18.44;100.00
66273;BME280;58450;52.150;4.466;2023-07-30T06:58:47;100910.31;;;18.24;100.00
66273;BME280;58450;52.150;4.466;2023-07-30T07:01:15;100909.50;;;18.11;100.00
66273;BME280;58450;52.150;4.466;2023-07-30T07:03:42;100906.31;;;18.38;100.00
66273;BME280;58450;52.150;4.466;2023-07-30T07:06:11;100914.53;;;17.96;100.00
66273;BME280;58450;52.150;4.466;2023-07-30T07:08:39;100926.06;;;18.22;100.00
66273;BME280;58450;52.150;4.466;2023-07-30T07:11:06;100927.84;;;18.28;100.00
66273;BME280;58450;52.150;4.466;2023-07-30T07:13:34;100923.34;;;18.22;100.00
66273;BME280;58450;52.150;4.466;2023-07-30T07:16:02;100929.84;;;18.33;100.00
66273;BME280;58450;52.150;4.466;2023-07-30T07:18:30;100943.13;;;18.17;100.00
66273;BME280;58450;52.150;4.466;2023-07-30T07:20:57;100964.78;;;18.12;100.00
66273;BME280;58450;52.150;4.466;2023-07-30T07:23:26;100946.16;;;17.97;100.00
66273;BME280;58450;52.150;4.466;2023-07-30T07:25:54;100962.81;;;18.31;100.00
66273;BME280;58450;52.150;4.466;2023-07-30T07:28:21;100954.13;;;18.22;100.00
66273;BME280;58450;52.150;4.466;2023-07-30T07:30:49;100948.22;;;18.49;100.00
66273;BME280;58450;52.150;4.466;2023-07-30T07:33:17;100952.97;;;18.42;100.00
66273;BME280;58450;52.150;4.466;2023-07-30T07:35:45;100949.63;;;18.40;100.00
66273;BME280;58450;52.150;4.466;2023-07-30T07:38:14;100948.47;;;18.48;100.00
66273;BME280;58450;52.150;4.466;2023-07-30T07:40:43;100948.69;;;18.46;100.00
66273;BME280;58450;52.150;4.466;2023-07-30T07:43:11;100953.75;;;18.90;100.00
66273;BME280;58450;52.150;4.466;2023-07-30T07:45:38;100940.75;;;19.21;100.00
66273;BME280;58450;52.150;4.466;2023-07-30T07:48:06;100942.75;;;19.55;100.00
66273;BME280;58450;52.150;4.466;2023-07-30T07:50:34;100949.63;;;19.28;100.00
66273;BME280;58450;52.150;4.466;2023-07-30T07:53:01;100956.38;;;19.38;100.00
66273;BME280;58450;52.150;4.466;2023-07-30T07:55:29;100964.28;;;19.68;100.00
66273;BME280;58450;52.150;4.466;2023-07-30T07:57:58;100965.00;;;19.63;100.00
66273;BME280;58450;52.150;4.466;2023-07-30T08:00:25;100983.63;;;19.09;100.00
66273;BME280;58450;52.150;4.466;2023-07-30T08:02:53;100980.66;;;18.98;100.00
66273;BME280;58450;52.150;4.466;2023-07-30T08:05:20;100984.81;;;19.01;100.00
66273;BME280;58450;52.150;4.466;2023-07-30T08:07:50;100959.69;;;18.75;100.00
66273;BME280;58450;52.150;4.466;2023-07-30T08:10:18;101000.81;;;18.73;100.00
66273;BME280;58450;52.150;4.466;2023-07-30T08:12:45;100983.19;;;18.52;100.00
66273;BME280;58450;52.150;4.466;2023-07-30T08:15:16;100973.94;;;18.53;100.00
66273;BME280;58450;52.150;4.466;2023-07-30T08:17:43;100968.91;;;18.86;100.00
66273;BME280;58450;52.150;4.466;2023-07-30T08:20:11;100956.56;;;19.07;100.00
66273;BME280;58450;52.150;4.466;2023-07-30T08:22:39;100963.00;;;19.42;100.00
66273;BME280;58450;52.150;4.466;2023-07-30T08:25:07;101013.25;;;19.17;100.00
66273;BME280;58450;52.150;4.466;2023-07-30T08:27:34;100983.09;;;19.24;100.00
66273;BME280;58450;52.150;4.466;2023-07-30T08:30:02;100959.31;;;19.36;100.00
66273;BME280;58450;52.150;4.466;2023-07-30T08:32:32;100953.56;;;19.78;100.00
66273;BME280;58450;52.150;4.466;2023-07-30T08:35:00;100965.16;;;19.86;100.00
66273;BME280;58450;52.150;4.466;2023-07-30T08:37:28;100971.91;;;19.66;100.00
66273;BME280;58450;52.150;4.466;2023-07-30T08:39:56;100971.81;;;19.78;100.00
66273;BME280;58450;52.150;4.466;2023-07-30T08:42:24;100972.56;;;20.19;100.00
66273;BME280;58450;52.150;4.466;2023-07-30T08:44:51;100975.94;;;20.83;100.00
66273;BME280;58450;52.150;4.466;2023-07-30T08:47:19;100980.25;;;20.22;100.00
66273;BME280;58450;52.150;4.466;2023-07-30T08:49:48;100974.53;;;20.07;100.00
66273;BME280;58450;52.150;4.466;2023-07-30T08:52:16;100985.06;;;20.15;100.00
66273;BME280;58450;52.150;4.466;2023-07-30T08:54:48;100990.69;;;20.43;100.00
66273;BME280;58450;52.150;4.466;2023-07-30T08:57:17;100973.06;;;20.16;100.00
66273;BME280;58450;52.150;4.466;2023-07-30T08:59:49;100986.94;;;19.98;100.00
66273;BME280;58450;52.150;4.466;2023-07-30T09:02:24;101015.78;;;20.40;100.00
66273;BME280;58450;52.150;4.466;2023-07-30T09:05:01;100995.09;;;20.83;100.00
66273;BME280;58450;52.150;4.466;2023-07-30T09:07:29;100988.59;;;21.06;100.00
66273;BME280;58450;52.150;4.466;2023-07-30T09:09:58;101003.38;;;21.55;100.00
66273;BME280;58450;52.150;4.466;2023-07-30T09:12:26;101022.22;;;20.67;100.00
66273;BME280;58450;52.150;4.466;2023-07-30T09:14:56;100992.50;;;20.37;100.00
66273;BME280;58450;52.150;4.466;2023-07-30T09:17:24;100997.34;;;20.69;100.00
66273;BME280;58450;52.150;4.466;2023-07-30T09:19:52;100981.13;;;20.79;100.00
66273;BME280;58450;52.150;4.466;2023-07-30T09:22:24;100989.22;;;20.74;100.00
66273;BME280;58450;52.150;4.466;2023-07-30T09:24:53;100996.00;;;20.89;100.00
66273;BME280;58450;52.150;4.466;2023-07-30T09:27:21;100990.03;;;21.14;100.00
66273;BME280;58450;52.150;4.466;2023-07-30T09:29:53;100999.56;;;20.89;100.00
66273;BME280;58450;52.150;4.466;2023-07-30T09:32:25;101013.53;;;21.10;100.00
66273;BME280;58450;52.150;4.466;2023-07-30T09:34:53;101003.00;;;21.68;100.00
66273;BME280;58450;52.150;4.466;2023-07-30T09:37:22;101013.69;;;22.30;100.00
66273;BME280;58450;52.150;4.466;2023-07-30T09:39:50;101018.88;;;21.66;100.00
66273;BME280;58450;52.150;4.466;2023-07-30T09:42:18;101047.97;;;21.50;100.00
66273;BME280;58450;52.150;4.466;2023-07-30T09:44:46;101013.44;;;21.72;100.00
66273;BME280;58450;52.150;4.466;2023-07-30T09:47:15;101025.16;;;21.45;100.00
66273;BME280;58450;52.150;4.466;2023-07-30T09:49:42;101042.72;;;20.31;100.00
66273;BME280;58450;52.150;4.466;2023-07-30T09:52:10;101029.59;;;20.33;100.00
66273;BME280;58450;52.150;4.466;2023-07-30T09:54:42;101034.38;;;20.94;100.00
66273;BME280;58450;52.150;4.466;2023-07-30T09:57:09;101029.34;;;21.30;100.00
66273;BME280;58450;52.150;4.466;2023-07-30T09:59:37;101048.41;;;20.63;100.00
66273;BME280;58450;52.150;4.466;2023-07-30T10:02:05;101043.88;;;21.08;100.00
66273;BME280;58450;52.150;4.466;2023-07-30T10:04:40;101037.22;;;20.48;100.00
66273;BME280;58450;52.150;4.466;2023-07-30T10:07:14;101040.66;;;19.92;100.00
66273;BME280;58450;52.150;4.466;2023-07-30T10:09:48;101043.25;;;19.99;100.00
66273;BME280;58450;52.150;4.466;2023-07-30T10:12:22;101059.38;;;20.00;100.00
66273;BME280;58450;52.150;4.466;2023-07-30T10:14:54;101057.03;;;19.51;100.00
66273;BME280;58450;52.150;4.466;2023-07-30T10:17:22;101059.03;;;19.15;100.00
66273;BME280;58450;52.150;4.466;2023-07-30T10:19:50;101057.47;;;19.07;100.00
66273;BME280;58450;52.150;4.466;2023-07-30T10:22:22;101046.22;;;19.27;100.00
66273;BME280;58450;52.150;4.466;2023-07-30T10:25:00;101064.47;;;19.27;100.00
66273;BME280;58450;52.150;4.466;2023-07-30T10:27:36;101068.44;;;19.60;100.00
66273;BME280;58450;52.150;4.466;2023-07-30T10:30:09;101076.81;;;19.70;100.00
66273;BME280;58450;52.150;4.466;2023-07-30T10:32:38;101055.78;;;19.42;100.00
66273;BME280;58450;52.150;4.466;2023-07-30T10:35:07;101086.94;;;19.58;100.00
66273;BME280;58450;52.150;4.466;2023-07-30T10:37:35;101092.13;;;19.71;100.00
66273;BME280;58450;52.150;4.466;2023-07-30T10:40:17;101096.63;;;19.77;100.00
66273;BME280;58450;52.150;4.466;2023-07-30T10:42:45;101095.03;;;19.53;100.00
66273;BME280;58450;52.150;4.466;2023-07-30T10:45:12;101089.91;;;19.56;100.00
66273;BME280;58450;52.150;4.466;2023-07-30T10:47:41;101087.38;;;19.67;100.00
66273;BME280;58450;52.150;4.466;2023-07-30T10:50:09;101106.69;;;19.89;100.00
66273;BME280;58450;52.150;4.466;2023-07-30T10:52:39;101081.59;;;20.21;100.00
66273;BME280;58450;52.150;4.466;2023-07-30T10:55:07;101079.44;;;20.06;100.00
66273;BME280;58450;52.150;4.466;2023-07-30T10:57:37;101092.88;;;20.25;100.00
66273;BME280;58450;52.150;4.466;2023-07-30T11:00:07;101082.44;;;20.38;100.00
66273;BME280;58450;52.150;4.466;2023-07-30T11:02:35;101085.84;;;20.29;100.00
66273;BME280;58450;52.150;4.466;2023-07-30T11:05:12;101093.56;;;20.49;100.00
66273;BME280;58450;52.150;4.466;2023-07-30T11:07:49;101109.69;;;20.33;100.00
66273;BME280;58450;52.150;4.466;2023-07-30T11:10:18;101100.13;;;20.19;100.00
66273;BME280;58450;52.150;4.466;2023-07-30T11:12:48;101098.28;;;20.36;100.00
66273;BME280;58450;52.150;4.466;2023-07-30T11:15:16;101109.78;;;19.92;100.00
66273;BME280;58450;52.150;4.466;2023-07-30T11:17:44;101110.00;;;19.91;100.00
66273;BME280;58450;52.150;4.466;2023-07-30T11:20:22;101119.38;;;19.95;100.00
66273;BME280;58450;52.150;4.466;2023-07-30T11:22:53;101114.94;;;20.06;100.00
66273;BME280;58450;52.150;4.466;2023-07-30T11:25:20;101167.16;;;20.21;100.00
66273;BME280;58450;52.150;4.466;2023-07-30T11:27:50;101105.41;;;20.37;100.00
66273;BME280;58450;52.150;4.466;2023-07-30T11:30:18;101125.09;;;20.22;100.00
66273;BME280;58450;52.150;4.466;2023-07-30T11:32:46;101126.97;;;19.93;100.00
66273;BME280;58450;52.150;4.466;2023-07-30T11:35:15;101118.66;;;19.88;100.00
66273;BME280;58450;52.150;4.466;2023-07-30T11:37:44;101123.75;;;19.96;100.00
66273;BME280;58450;52.150;4.466;2023-07-30T11:40:12;101118.69;;;20.80;100.00
66273;BME280;58450;52.150;4.466;2023-07-30T11:42:41;101124.81;;;20.87;100.00
66273;BME280;58450;52.150;4.466;2023-07-30T11:45:22;101120.41;;;21.43;100.00
66273;BME280;58450;52.150;4.466;2023-07-30T11:47:50;101121.91;;;21.11;100.00
66273;BME280;58450;52.150;4.466;2023-07-30T11:50:18;101132.00;;;20.76;100.00
66273;BME280;58450;52.150;4.466;2023-07-30T11:52:55;101166.09;;;20.86;100.00
66273;BME280;58450;52.150;4.466;2023-07-30T11:55:24;101127.53;;;20.70;100.00
66273;BME280;58450;52.150;4.466;2023-07-30T11:58:04;101123.09;;;20.35;100.00
66273;BME280;58450;52.150;4.466;2023-07-30T12:00:34;101153.03;;;20.59;100.00
66273;BME280;58450;52.150;4.466;2023-07-30T12:03:03;101114.94;;;20.86;100.00
66273;BME280;58450;52.150;4.466;2023-07-30T12:05:34;101116.66;;;20.41;100.00
66273;BME280;58450;52.150;4.466;2023-07-30T12:08:02;101137.03;;;20.50;100.00
66273;BME280;58450;52.150;4.466;2023-07-30T12:10:42;101143.56;;;20.32;100.00
66273;BME280;58450;52.150;4.466;2023-07-30T12:13:15;101121.88;;;20.43;100.00
66273;BME280;58450;52.150;4.466;2023-07-30T12:15:50;101129.34;;;20.47;100.00
66273;BME280;58450;52.150;4.466;2023-07-30T12:18:19;101134.50;;;20.78;100.00
66273;BME280;58450;52.150;4.466;2023-07-30T12:20:47;101133.22;;;21.37;100.00
66273;BME280;58450;52.150;4.466;2023-07-30T12:23:16;101157.03;;;21.76;100.00
66273;BME280;58450;52.150;4.466;2023-07-30T12:25:45;101139.94;;;21.91;100.00
66273;BME280;58450;52.150;4.466;2023-07-30T12:28:13;101155.47;;;21.23;100.00
66273;BME280;58450;52.150;4.466;2023-07-30T12:30:41;101136.91;;;20.74;100.00
66273;BME280;58450;52.150;4.466;2023-07-30T12:33:09;101126.94;;;20.51;100.00
66273;BME280;58450;52.150;4.466;2023-07-30T12:35:37;101156.56;;;20.42;100.00
66273;BME280;58450;52.150;4.466;2023-07-30T12:38:05;101159.28;;;20.88;100.00
66273;BME280;58450;52.150;4.466;2023-07-30T12:40:32;101144.53;;;20.55;100.00
66273;BME280;58450;52.150;4.466;2023-07-30T12:43:01;101144.72;;;20.83;100.00
66273;BME280;58450;52.150;4.466;2023-07-30T12:45:30;101148.78;;;20.97;100.00
66273;BME280;58450;52.150;4.466;2023-07-30T12:48:00;101151.66;;;20.56;100.00